You are not logged in, Click here to log in
Roland Garros Airport / FMEE St Denis
ICAO: FMEE Country: St Denis
Latitude: -20.8871 Longitude: 55.5103
Total Arrivals: 0 Total Departures: 1
Latest Arrival: (-). Latest Departure: UU130 (FMEE-FIMP)Stone. Chang
Scenery:
METAR : FMEE 080300Z AUTO 16006KT CAVOK 27/21 Q1012 NOSIG

Roland Garros Airport